sensor_id;sensor_type;location;lat;lon;timestamp;P1;durP1;ratioP1;P2;durP2;ratioP2
73841;SDS011;62184;52.006;5.924;2023-08-20T00:00:37;13.20;;;10.67;;
73841;SDS011;62184;52.006;5.924;2023-08-20T00:03:08;12.20;;;10.80;;
73841;SDS011;62184;52.006;5.924;2023-08-20T00:05:38;12.18;;;10.15;;
73841;SDS011;62184;52.006;5.924;2023-08-20T00:08:06;12.33;;;10.00;;
73841;SDS011;62184;52.006;5.924;2023-08-20T00:10:33;11.02;;;9.93;;
73841;SDS011;62184;52.006;5.924;2023-08-20T00:12:59;10.90;;;9.77;;
73841;SDS011;62184;52.006;5.924;2023-08-20T00:15:26;10.98;;;9.95;;
73841;SDS011;62184;52.006;5.924;2023-08-20T00:17:55;11.85;;;9.75;;
73841;SDS011;62184;52.006;5.924;2023-08-20T00:20:22;11.57;;;9.52;;
73841;SDS011;62184;52.006;5.924;2023-08-20T00:22:50;10.55;;;9.45;;
73841;SDS011;62184;52.006;5.924;2023-08-20T00:25:18;11.17;;;9.97;;
73841;SDS011;62184;52.006;5.924;2023-08-20T00:27:45;12.10;;;10.90;;
73841;SDS011;62184;52.006;5.924;2023-08-20T00:30:12;13.70;;;12.27;;
73841;SDS011;62184;52.006;5.924;2023-08-20T00:32:39;14.23;;;12.73;;
73841;SDS011;62184;52.006;5.924;2023-08-20T00:35:08;14.38;;;13.00;;
73841;SDS011;62184;52.006;5.924;2023-08-20T00:37:35;15.65;;;13.20;;
73841;SDS011;62184;52.006;5.924;2023-08-20T00:40:01;14.50;;;13.00;;
73841;SDS011;62184;52.006;5.924;2023-08-20T00:42:28;15.45;;;13.48;;
73841;SDS011;62184;52.006;5.924;2023-08-20T00:44:55;15.40;;;13.70;;
73841;SDS011;62184;52.006;5.924;2023-08-20T00:47:21;14.30;;;12.80;;
73841;SDS011;62184;52.006;5.924;2023-08-20T00:49:48;14.07;;;12.57;;
73841;SDS011;62184;52.006;5.924;2023-08-20T00:52:17;14.30;;;12.38;;
73841;SDS011;62184;52.006;5.924;2023-08-20T00:54:44;14.45;;;12.63;;
73841;SDS011;62184;52.006;5.924;2023-08-20T00:57:11;13.33;;;11.93;;
73841;SDS011;62184;52.006;5.924;2023-08-20T00:59:40;15.50;;;12.65;;
73841;SDS011;62184;52.006;5.924;2023-08-20T01:02:08;16.93;;;12.30;;
73841;SDS011;62184;52.006;5.924;2023-08-20T01:04:35;14.90;;;11.90;;
73841;SDS011;62184;52.006;5.924;2023-08-20T01:07:03;14.32;;;11.80;;
73841;SDS011;62184;52.006;5.924;2023-08-20T01:09:47;15.25;;;12.32;;
73841;SDS011;62184;52.006;5.924;2023-08-20T01:12:23;14.23;;;12.60;;
73841;SDS011;62184;52.006;5.924;2023-08-20T01:14:51;14.20;;;12.68;;
73841;SDS011;62184;52.006;5.924;2023-08-20T01:17:18;13.60;;;12.23;;
73841;SDS011;62184;52.006;5.924;2023-08-20T01:19:45;15.02;;;12.60;;
73841;SDS011;62184;52.006;5.924;2023-08-20T01:22:20;14.65;;;12.95;;
73841;SDS011;62184;52.006;5.924;2023-08-20T01:25:23;14.90;;;13.40;;
73841;SDS011;62184;52.006;5.924;2023-08-20T01:28:21;15.20;;;13.18;;
73841;SDS011;62184;52.006;5.924;2023-08-20T01:30:52;14.57;;;13.02;;
73841;SDS011;62184;52.006;5.924;2023-08-20T01:33:21;15.25;;;13.65;;
73841;SDS011;62184;52.006;5.924;2023-08-20T01:35:48;16.40;;;12.65;;
73841;SDS011;62184;52.006;5.924;2023-08-20T01:38:16;16.85;;;12.98;;
73841;SDS011;62184;52.006;5.924;2023-08-20T01:40:42;16.02;;;14.27;;
73841;SDS011;62184;52.006;5.924;2023-08-20T01:43:09;17.40;;;15.45;;
73841;SDS011;62184;52.006;5.924;2023-08-20T01:45:38;15.57;;;13.98;;
73841;SDS011;62184;52.006;5.924;2023-08-20T01:48:05;15.10;;;13.48;;
73841;SDS011;62184;52.006;5.924;2023-08-20T01:50:32;15.75;;;13.05;;
73841;SDS011;62184;52.006;5.924;2023-08-20T01:53:00;15.18;;;13.27;;
73841;SDS011;62184;52.006;5.924;2023-08-20T01:55:27;15.10;;;12.90;;
73841;SDS011;62184;52.006;5.924;2023-08-20T01:57:53;16.57;;;13.30;;
73841;SDS011;62184;52.006;5.924;2023-08-20T02:00:20;17.50;;;14.35;;
73841;SDS011;62184;52.006;5.924;2023-08-20T02:02:49;15.93;;;14.18;;
73841;SDS011;62184;52.006;5.924;2023-08-20T02:05:15;17.33;;;15.52;;
73841;SDS011;62184;52.006;5.924;2023-08-20T02:07:42;16.70;;;14.93;;
73841;SDS011;62184;52.006;5.924;2023-08-20T02:10:08;18.13;;;15.82;;
73841;SDS011;62184;52.006;5.924;2023-08-20T02:12:35;18.73;;;15.18;;
73841;SDS011;62184;52.006;5.924;2023-08-20T02:15:01;18.65;;;15.80;;
73841;SDS011;62184;52.006;5.924;2023-08-20T02:17:28;19.98;;;16.25;;
73841;SDS011;62184;52.006;5.924;2023-08-20T02:19:57;18.67;;;15.43;;
73841;SDS011;62184;52.006;5.924;2023-08-20T02:22:24;23.08;;;17.27;;
73841;SDS011;62184;52.006;5.924;2023-08-20T02:24:50;18.27;;;15.93;;
73841;SDS011;62184;52.006;5.924;2023-08-20T02:27:17;18.40;;;16.40;;
73841;SDS011;62184;52.006;5.924;2023-08-20T02:29:43;22.85;;;17.33;;
73841;SDS011;62184;52.006;5.924;2023-08-20T02:32:10;23.05;;;18.17;;
73841;SDS011;62184;52.006;5.924;2023-08-20T02:34:36;22.42;;;18.40;;
73841;SDS011;62184;52.006;5.924;2023-08-20T02:37:05;24.97;;;18.97;;
73841;SDS011;62184;52.006;5.924;2023-08-20T02:39:31;26.00;;;20.17;;
73841;SDS011;62184;52.006;5.924;2023-08-20T02:41:58;24.17;;;18.40;;
73841;SDS011;62184;52.006;5.924;2023-08-20T02:44:24;25.37;;;19.50;;
73841;SDS011;62184;52.006;5.924;2023-08-20T02:46:51;24.92;;;18.95;;
73841;SDS011;62184;52.006;5.924;2023-08-20T02:49:17;22.98;;;19.42;;
73841;SDS011;62184;52.006;5.924;2023-08-20T02:51:44;25.00;;;19.40;;
73841;SDS011;62184;52.006;5.924;2023-08-20T02:54:13;24.08;;;18.10;;
73841;SDS011;62184;52.006;5.924;2023-08-20T02:56:39;22.00;;;18.30;;
73841;SDS011;62184;52.006;5.924;2023-08-20T02:59:06;24.30;;;19.43;;
73841;SDS011;62184;52.006;5.924;2023-08-20T03:01:32;22.20;;;18.70;;
73841;SDS011;62184;52.006;5.924;2023-08-20T03:03:59;21.60;;;18.33;;
73841;SDS011;62184;52.006;5.924;2023-08-20T03:06:25;19.85;;;17.50;;
73841;SDS011;62184;52.006;5.924;2023-08-20T03:08:52;23.27;;;18.15;;
73841;SDS011;62184;52.006;5.924;2023-08-20T03:11:21;22.70;;;17.93;;
73841;SDS011;62184;52.006;5.924;2023-08-20T03:13:47;25.20;;;19.55;;
73841;SDS011;62184;52.006;5.924;2023-08-20T03:16:14;25.63;;;19.75;;
73841;SDS011;62184;52.006;5.924;2023-08-20T03:18:40;27.37;;;20.40;;
73841;SDS011;62184;52.006;5.924;2023-08-20T03:21:07;27.55;;;21.13;;
73841;SDS011;62184;52.006;5.924;2023-08-20T03:23:33;31.17;;;21.73;;
73841;SDS011;62184;52.006;5.924;2023-08-20T03:25:59;30.63;;;22.13;;
73841;SDS011;62184;52.006;5.924;2023-08-20T03:28:29;31.30;;;21.85;;
73841;SDS011;62184;52.006;5.924;2023-08-20T03:30:58;28.92;;;21.95;;
73841;SDS011;62184;52.006;5.924;2023-08-20T03:33:26;34.10;;;21.67;;
73841;SDS011;62184;52.006;5.924;2023-08-20T03:35:52;29.30;;;21.15;;
73841;SDS011;62184;52.006;5.924;2023-08-20T03:38:19;31.25;;;22.33;;
73841;SDS011;62184;52.006;5.924;2023-08-20T03:40:45;28.42;;;21.60;;
73841;SDS011;62184;52.006;5.924;2023-08-20T03:43:12;31.23;;;22.10;;
73841;SDS011;62184;52.006;5.924;2023-08-20T03:45:41;35.27;;;23.97;;
73841;SDS011;62184;52.006;5.924;2023-08-20T03:48:07;33.57;;;23.73;;
73841;SDS011;62184;52.006;5.924;2023-08-20T03:50:34;31.65;;;24.10;;
73841;SDS011;62184;52.006;5.924;2023-08-20T03:53:00;33.83;;;23.73;;
73841;SDS011;62184;52.006;5.924;2023-08-20T03:55:27;32.10;;;23.13;;
73841;SDS011;62184;52.006;5.924;2023-08-20T03:57:53;31.20;;;22.20;;
73841;SDS011;62184;52.006;5.924;2023-08-20T04:00:20;29.50;;;22.13;;
73841;SDS011;62184;52.006;5.924;2023-08-20T04:02:49;31.55;;;21.83;;
73841;SDS011;62184;52.006;5.924;2023-08-20T04:05:15;30.63;;;21.40;;
73841;SDS011;62184;52.006;5.924;2023-08-20T04:07:42;31.17;;;22.15;;
73841;SDS011;62184;52.006;5.924;2023-08-20T04:10:08;31.55;;;21.00;;
73841;SDS011;62184;52.006;5.924;2023-08-20T04:12:35;25.77;;;19.40;;
73841;SDS011;62184;52.006;5.924;2023-08-20T04:15:02;24.27;;;18.85;;
73841;SDS011;62184;52.006;5.924;2023-08-20T04:17:29;25.80;;;18.90;;
73841;SDS011;62184;52.006;5.924;2023-08-20T04:19:58;24.50;;;18.90;;
73841;SDS011;62184;52.006;5.924;2023-08-20T04:22:25;21.42;;;17.33;;
73841;SDS011;62184;52.006;5.924;2023-08-20T04:24:51;20.37;;;17.07;;
73841;SDS011;62184;52.006;5.924;2023-08-20T04:27:18;26.48;;;15.13;;
73841;SDS011;62184;52.006;5.924;2023-08-20T04:29:44;21.95;;;17.77;;
73841;SDS011;62184;52.006;5.924;2023-08-20T04:32:11;17.17;;;15.38;;
73841;SDS011;62184;52.006;5.924;2023-08-20T04:34:37;17.92;;;16.05;;
73841;SDS011;62184;52.006;5.924;2023-08-20T04:37:06;18.83;;;16.80;;
73841;SDS011;62184;52.006;5.924;2023-08-20T04:39:33;21.63;;;17.40;;
73841;SDS011;62184;52.006;5.924;2023-08-20T04:41:59;25.90;;;18.13;;
73841;SDS011;62184;52.006;5.924;2023-08-20T04:44:26;22.83;;;17.93;;
73841;SDS011;62184;52.006;5.924;2023-08-20T04:46:52;20.35;;;17.48;;
73841;SDS011;62184;52.006;5.924;2023-08-20T04:49:18;18.33;;;16.52;;
73841;SDS011;62184;52.006;5.924;2023-08-20T04:51:45;18.17;;;16.27;;
73841;SDS011;62184;52.006;5.924;2023-08-20T04:54:14;18.58;;;16.52;;
73841;SDS011;62184;52.006;5.924;2023-08-20T04:56:40;18.83;;;16.83;;
73841;SDS011;62184;52.006;5.924;2023-08-20T04:59:07;21.90;;;16.90;;
73841;SDS011;62184;52.006;5.924;2023-08-20T05:01:33;21.67;;;17.77;;
73841;SDS011;62184;52.006;5.924;2023-08-20T05:04:00;20.80;;;16.50;;
73841;SDS011;62184;52.006;5.924;2023-08-20T05:06:26;19.25;;;16.23;;
73841;SDS011;62184;52.006;5.924;2023-08-20T05:08:53;18.60;;;16.50;;
73841;SDS011;62184;52.006;5.924;2023-08-20T05:11:22;20.98;;;15.82;;
73841;SDS011;62184;52.006;5.924;2023-08-20T05:13:49;18.67;;;14.68;;
73841;SDS011;62184;52.006;5.924;2023-08-20T05:16:16;17.75;;;14.50;;
73841;SDS011;62184;52.006;5.924;2023-08-20T05:18:42;16.33;;;14.40;;
73841;SDS011;62184;52.006;5.924;2023-08-20T05:21:09;17.15;;;13.80;;
73841;SDS011;62184;52.006;5.924;2023-08-20T05:23:35;18.48;;;13.77;;
73841;SDS011;62184;52.006;5.924;2023-08-20T05:26:02;19.08;;;14.00;;
73841;SDS011;62184;52.006;5.924;2023-08-20T05:28:31;16.80;;;13.23;;
73841;SDS011;62184;52.006;5.924;2023-08-20T05:30:57;16.33;;;13.00;;
73841;SDS011;62184;52.006;5.924;2023-08-20T05:33:24;16.80;;;12.30;;
73841;SDS011;62184;52.006;5.924;2023-08-20T05:35:51;15.90;;;12.63;;
73841;SDS011;62184;52.006;5.924;2023-08-20T05:38:18;14.90;;;11.70;;
73841;SDS011;62184;52.006;5.924;2023-08-20T05:40:44;13.50;;;11.65;;
73841;SDS011;62184;52.006;5.924;2023-08-20T05:43:11;12.07;;;10.80;;
73841;SDS011;62184;52.006;5.924;2023-08-20T05:45:40;12.40;;;10.70;;
73841;SDS011;62184;52.006;5.924;2023-08-20T05:48:06;14.18;;;10.20;;
73841;SDS011;62184;52.006;5.924;2023-08-20T05:50:33;11.55;;;9.90;;
73841;SDS011;62184;52.006;5.924;2023-08-20T05:53:00;11.70;;;10.03;;
73841;SDS011;62184;52.006;5.924;2023-08-20T05:55:26;12.15;;;10.23;;
73841;SDS011;62184;52.006;5.924;2023-08-20T05:57:53;11.17;;;9.60;;
73841;SDS011;62184;52.006;5.924;2023-08-20T06:00:19;11.90;;;9.48;;
73841;SDS011;62184;52.006;5.924;2023-08-20T06:02:48;11.90;;;9.43;;
73841;SDS011;62184;52.006;5.924;2023-08-20T06:05:15;12.35;;;9.07;;
73841;SDS011;62184;52.006;5.924;2023-08-20T06:07:41;11.15;;;8.82;;
73841;SDS011;62184;52.006;5.924;2023-08-20T06:10:08;12.18;;;9.52;;
73841;SDS011;62184;52.006;5.924;2023-08-20T06:12:35;10.55;;;8.63;;
73841;SDS011;62184;52.006;5.924;2023-08-20T06:15:01;12.00;;;9.07;;
73841;SDS011;62184;52.006;5.924;2023-08-20T06:17:29;12.23;;;8.90;;
73841;SDS011;62184;52.006;5.924;2023-08-20T06:19:58;11.45;;;9.35;;
73841;SDS011;62184;52.006;5.924;2023-08-20T06:22:25;13.25;;;9.13;;
73841;SDS011;62184;52.006;5.924;2023-08-20T06:24:51;11.68;;;9.13;;
73841;SDS011;62184;52.006;5.924;2023-08-20T06:27:18;13.82;;;9.20;;
73841;SDS011;62184;52.006;5.924;2023-08-20T06:29:44;13.00;;;9.53;;
73841;SDS011;62184;52.006;5.924;2023-08-20T06:32:11;14.25;;;9.57;;
73841;SDS011;62184;52.006;5.924;2023-08-20T06:34:37;13.35;;;9.50;;
73841;SDS011;62184;52.006;5.924;2023-08-20T06:37:06;15.00;;;9.88;;
73841;SDS011;62184;52.006;5.924;2023-08-20T06:39:33;13.35;;;9.88;;
73841;SDS011;62184;52.006;5.924;2023-08-20T06:41:59;13.50;;;9.70;;
73841;SDS011;62184;52.006;5.924;2023-08-20T06:44:26;14.10;;;10.00;;
73841;SDS011;62184;52.006;5.924;2023-08-20T06:46:52;12.93;;;9.55;;
73841;SDS011;62184;52.006;5.924;2023-08-20T06:49:19;12.27;;;9.70;;
73841;SDS011;62184;52.006;5.924;2023-08-20T06:51:45;13.88;;;9.80;;
73841;SDS011;62184;52.006;5.924;2023-08-20T06:54:14;12.03;;;9.80;;
73841;SDS011;62184;52.006;5.924;2023-08-20T06:56:41;14.10;;;10.00;;
73841;SDS011;62184;52.006;5.924;2023-08-20T06:59:08;15.00;;;10.27;;
73841;SDS011;62184;52.006;5.924;2023-08-20T07:01:34;13.30;;;10.45;;
73841;SDS011;62184;52.006;5.924;2023-08-20T07:04:01;12.45;;;10.68;;
73841;SDS011;62184;52.006;5.924;2023-08-20T07:06:27;14.73;;;10.63;;
73841;SDS011;62184;52.006;5.924;2023-08-20T07:08:54;13.77;;;10.98;;
73841;SDS011;62184;52.006;5.924;2023-08-20T07:11:23;13.05;;;10.50;;
73841;SDS011;62184;52.006;5.924;2023-08-20T07:13:49;11.70;;;10.10;;
73841;SDS011;62184;52.006;5.924;2023-08-20T07:16:16;13.23;;;10.55;;
73841;SDS011;62184;52.006;5.924;2023-08-20T07:18:42;13.07;;;10.73;;
73841;SDS011;62184;52.006;5.924;2023-08-20T07:21:09;11.90;;;10.57;;
73841;SDS011;62184;52.006;5.924;2023-08-20T07:23:35;12.40;;;10.52;;
73841;SDS011;62184;52.006;5.924;2023-08-20T07:26:04;11.65;;;9.88;;
73841;SDS011;62184;52.006;5.924;2023-08-20T07:28:35;13.02;;;9.75;;
73841;SDS011;62184;52.006;5.924;2023-08-20T07:31:02;11.13;;;9.75;;
73841;SDS011;62184;52.006;5.924;2023-08-20T07:33:28;10.10;;;8.90;;
73841;SDS011;62184;52.006;5.924;2023-08-20T07:35:55;10.93;;;9.38;;
73841;SDS011;62184;52.006;5.924;2023-08-20T07:38:21;10.43;;;9.30;;
73841;SDS011;62184;52.006;5.924;2023-08-20T07:40:48;12.27;;;9.60;;
73841;SDS011;62184;52.006;5.924;2023-08-20T07:43:14;11.05;;;9.00;;
73841;SDS011;62184;52.006;5.924;2023-08-20T07:45:43;11.90;;;9.23;;
73841;SDS011;62184;52.006;5.924;2023-08-20T07:48:10;11.40;;;9.30;;
73841;SDS011;62184;52.006;5.924;2023-08-20T07:50:36;10.10;;;9.10;;
73841;SDS011;62184;52.006;5.924;2023-08-20T07:53:03;11.65;;;9.52;;
73841;SDS011;62184;52.006;5.924;2023-08-20T07:55:30;12.00;;;9.60;;
73841;SDS011;62184;52.006;5.924;2023-08-20T07:57:56;11.93;;;9.88;;
73841;SDS011;62184;52.006;5.924;2023-08-20T08:00:23;11.10;;;9.32;;
73841;SDS011;62184;52.006;5.924;2023-08-20T08:02:52;11.07;;;9.15;;
73841;SDS011;62184;52.006;5.924;2023-08-20T08:05:18;9.82;;;8.60;;
73841;SDS011;62184;52.006;5.924;2023-08-20T08:07:45;10.45;;;9.20;;
73841;SDS011;62184;52.006;5.924;2023-08-20T08:10:11;11.17;;;9.53;;
73841;SDS011;62184;52.006;5.924;2023-08-20T08:12:38;11.57;;;8.80;;
73841;SDS011;62184;52.006;5.924;2023-08-20T08:15:04;10.65;;;8.30;;
73841;SDS011;62184;52.006;5.924;2023-08-20T08:17:32;10.32;;;8.20;;
73841;SDS011;62184;52.006;5.924;2023-08-20T08:20:01;10.53;;;8.60;;
73841;SDS011;62184;52.006;5.924;2023-08-20T08:22:27;9.15;;;8.15;;
73841;SDS011;62184;52.006;5.924;2023-08-20T08:24:54;10.02;;;8.40;;
73841;SDS011;62184;52.006;5.924;2023-08-20T08:27:20;9.40;;;8.00;;
73841;SDS011;62184;52.006;5.924;2023-08-20T08:29:46;8.85;;;7.88;;
73841;SDS011;62184;52.006;5.924;2023-08-20T08:32:13;8.60;;;7.80;;
73841;SDS011;62184;52.006;5.924;2023-08-20T08:34:40;8.55;;;7.75;;
73841;SDS011;62184;52.006;5.924;2023-08-20T08:37:09;8.88;;;7.90;;
73841;SDS011;62184;52.006;5.924;2023-08-20T08:39:36;9.45;;;7.95;;
73841;SDS011;62184;52.006;5.924;2023-08-20T08:42:04;8.95;;;7.93;;
73841;SDS011;62184;52.006;5.924;2023-08-20T08:44:31;9.13;;;8.00;;
73841;SDS011;62184;52.006;5.924;2023-08-20T08:46:58;9.07;;;8.02;;
73841;SDS011;62184;52.006;5.924;2023-08-20T08:49:24;8.90;;;8.00;;
73841;SDS011;62184;52.006;5.924;2023-08-20T08:51:51;9.20;;;8.20;;
73841;SDS011;62184;52.006;5.924;2023-08-20T08:54:25;10.30;;;8.30;;
73841;SDS011;62184;52.006;5.924;2023-08-20T08:56:53;10.77;;;8.57;;
73841;SDS011;62184;52.006;5.924;2023-08-20T08:59:19;9.60;;;8.10;;
73841;SDS011;62184;52.006;5.924;2023-08-20T09:01:46;8.80;;;7.90;;
73841;SDS011;62184;52.006;5.924;2023-08-20T09:04:14;8.17;;;7.37;;
73841;SDS011;62184;52.006;5.924;2023-08-20T09:06:46;8.70;;;7.80;;
73841;SDS011;62184;52.006;5.924;2023-08-20T09:09:16;8.80;;;7.70;;
73841;SDS011;62184;52.006;5.924;2023-08-20T09:11:46;8.85;;;7.40;;
73841;SDS011;62184;52.006;5.924;2023-08-20T09:14:20;8.30;;;7.40;;
73841;SDS011;62184;52.006;5.924;2023-08-20T09:16:50;8.40;;;7.60;;
73841;SDS011;62184;52.006;5.924;2023-08-20T09:19:20;8.60;;;7.80;;
73841;SDS011;62184;52.006;5.924;2023-08-20T09:21:47;7.90;;;7.20;;
73841;SDS011;62184;52.006;5.924;2023-08-20T09:24:13;8.20;;;7.40;;
73841;SDS011;62184;52.006;5.924;2023-08-20T09:26:40;8.17;;;7.40;;
73841;SDS011;62184;52.006;5.924;2023-08-20T09:29:13;8.57;;;7.68;;
73841;SDS011;62184;52.006;5.924;2023-08-20T09:31:40;8.30;;;7.50;;
73841;SDS011;62184;52.006;5.924;2023-08-20T09:34:11;8.25;;;7.45;;
73841;SDS011;62184;52.006;5.924;2023-08-20T09:36:38;9.60;;;7.80;;
73841;SDS011;62184;52.006;5.924;2023-08-20T09:39:05;8.52;;;7.72;;
73841;SDS011;62184;52.006;5.924;2023-08-20T09:41:31;8.60;;;7.72;;
73841;SDS011;62184;52.006;5.924;2023-08-20T09:44:04;8.70;;;7.80;;
73841;SDS011;62184;52.006;5.924;2023-08-20T09:46:33;8.43;;;7.60;;
73841;SDS011;62184;52.006;5.924;2023-08-20T09:49:02;9.15;;;7.80;;
73841;SDS011;62184;52.006;5.924;2023-08-20T09:51:33;8.55;;;7.63;;
73841;SDS011;62184;52.006;5.924;2023-08-20T09:56:54;8.43;;;7.63;;
73841;SDS011;62184;52.006;5.924;2023-08-20T09:59:27;8.68;;;7.60;;
73841;SDS011;62184;52.006;5.924;2023-08-20T10:01:54;9.73;;;8.82;;
73841;SDS011;62184;52.006;5.924;2023-08-20T10:04:22;9.68;;;8.88;;
73841;SDS011;62184;52.006;5.924;2023-08-20T10:06:50;9.23;;;8.38;;
73841;SDS011;62184;52.006;5.924;2023-08-20T10:09:19;9.18;;;8.30;;
73841;SDS011;62184;52.006;5.924;2023-08-20T10:11:46;8.90;;;8.10;;
73841;SDS011;62184;52.006;5.924;2023-08-20T10:14:13;8.80;;;8.00;;
73841;SDS011;62184;52.006;5.924;2023-08-20T10:16:42;9.10;;;8.23;;
73841;SDS011;62184;52.006;5.924;2023-08-20T10:19:09;8.90;;;8.10;;
73841;SDS011;62184;52.006;5.924;2023-08-20T10:21:36;8.35;;;7.65;;
73841;SDS011;62184;52.006;5.924;2023-08-20T10:24:09;9.10;;;8.30;;
73841;SDS011;62184;52.006;5.924;2023-08-20T10:26:36;8.98;;;8.07;;
73841;SDS011;62184;52.006;5.924;2023-08-20T10:32:06;8.40;;;7.70;;
73841;SDS011;62184;52.006;5.924;2023-08-20T10:34:35;8.57;;;7.72;;
73841;SDS011;62184;52.006;5.924;2023-08-20T10:37:08;8.25;;;7.60;;
73841;SDS011;62184;52.006;5.924;2023-08-20T10:39:35;8.60;;;7.90;;
73841;SDS011;62184;52.006;5.924;2023-08-20T10:42:08;8.70;;;7.90;;
73841;SDS011;62184;52.006;5.924;2023-08-20T10:44:57;8.38;;;7.68;;
73841;SDS011;62184;52.006;5.924;2023-08-20T10:47:29;8.63;;;7.90;;
73841;SDS011;62184;52.006;5.924;2023-08-20T10:50:11;8.90;;;8.10;;
73841;SDS011;62184;52.006;5.924;2023-08-20T10:52:46;9.00;;;8.20;;
73841;SDS011;62184;52.006;5.924;2023-08-20T10:55:15;8.82;;;8.02;;
73841;SDS011;62184;52.006;5.924;2023-08-20T10:57:49;8.93;;;8.13;;
73841;SDS011;62184;52.006;5.924;2023-08-20T11:00:21;8.82;;;8.00;;
73841;SDS011;62184;52.006;5.924;2023-08-20T11:02:50;8.88;;;8.18;;
73841;SDS011;62184;52.006;5.924;2023-08-20T11:05:18;8.88;;;8.10;;
73841;SDS011;62184;52.006;5.924;2023-08-20T11:07:47;9.18;;;8.27;;
73841;SDS011;62184;52.006;5.924;2023-08-20T11:10:14;8.65;;;7.90;;
73841;SDS011;62184;52.006;5.924;2023-08-20T11:12:42;8.90;;;8.10;;
73841;SDS011;62184;52.006;5.924;2023-08-20T11:15:09;8.65;;;7.85;;
73841;SDS011;62184;52.006;5.924;2023-08-20T11:17:40;8.50;;;7.70;;
73841;SDS011;62184;52.006;5.924;2023-08-20T11:20:10;7.88;;;7.18;;
73841;SDS011;62184;52.006;5.924;2023-08-20T11:22:40;8.52;;;7.65;;
73841;SDS011;62184;52.006;5.924;2023-08-20T11:25:09;8.50;;;7.70;;
73841;SDS011;62184;52.006;5.924;2023-08-20T11:27:39;8.40;;;7.60;;
73841;SDS011;62184;52.006;5.924;2023-08-20T11:30:07;8.07;;;7.38;;
73841;SDS011;62184;52.006;5.924;2023-08-20T11:32:35;8.90;;;8.10;;
73841;SDS011;62184;52.006;5.924;2023-08-20T11:35:02;8.63;;;7.80;;
73841;SDS011;62184;52.006;5.924;2023-08-20T11:37:32;8.40;;;7.57;;
73841;SDS011;62184;52.006;5.924;2023-08-20T11:39:58;7.90;;;7.20;;
73841;SDS011;62184;52.006;5.924;2023-08-20T11:42:25;7.68;;;6.97;;
73841;SDS011;62184;52.006;5.924;2023-08-20T11:44:54;7.40;;;6.70;;
73841;SDS011;62184;52.006;5.924;2023-08-20T11:47:22;7.95;;;6.90;;
73841;SDS011;62184;52.006;5.924;2023-08-20T11:49:56;7.60;;;6.90;;
73841;SDS011;62184;52.006;5.924;2023-08-20T11:52:32;7.70;;;6.90;;
73841;SDS011;62184;52.006;5.924;2023-08-20T11:54:59;8.00;;;7.20;;
73841;SDS011;62184;52.006;5.924;2023-08-20T11:57:27;7.82;;;7.13;;
73841;SDS011;62184;52.006;5.924;2023-08-20T11:59:55;8.05;;;7.22;;
73841;SDS011;62184;52.006;5.924;2023-08-20T12:02:24;8.02;;;7.30;;
73841;SDS011;62184;52.006;5.924;2023-08-20T12:04:54;7.97;;;7.18;;
73841;SDS011;62184;52.006;5.924;2023-08-20T12:07:24;7.90;;;7.10;;
73841;SDS011;62184;52.006;5.924;2023-08-20T12:09:55;7.90;;;7.20;;
73841;SDS011;62184;52.006;5.924;2023-08-20T12:12:21;7.63;;;6.93;;
73841;SDS011;62184;52.006;5.924;2023-08-20T12:14:48;7.55;;;6.85;;
73841;SDS011;62184;52.006;5.924;2023-08-20T12:17:16;7.80;;;7.10;;
73841;SDS011;62184;52.006;5.924;2023-08-20T12:19:43;7.65;;;6.95;;
73841;SDS011;62184;52.006;5.924;2023-08-20T12:22:10;7.70;;;6.90;;
73841;SDS011;62184;52.006;5.924;2023-08-20T12:24:37;8.07;;;6.70;;
73841;SDS011;62184;52.006;5.924;2023-08-20T12:27:06;7.87;;;6.60;;
73841;SDS011;62184;52.006;5.924;2023-08-20T12:29:32;7.80;;;7.10;;
73841;SDS011;62184;52.006;5.924;2023-08-20T12:31:59;7.73;;;7.03;;
73841;SDS011;62184;52.006;5.924;2023-08-20T12:34:26;7.53;;;6.83;;
73841;SDS011;62184;52.006;5.924;2023-08-20T12:36:53;7.93;;;7.05;;
73841;SDS011;62184;52.006;5.924;2023-08-20T12:39:19;9.23;;;7.13;;
73841;SDS011;62184;52.006;5.924;2023-08-20T12:41:45;7.90;;;7.10;;
73841;SDS011;62184;52.006;5.924;2023-08-20T12:44:14;7.50;;;6.80;;
73841;SDS011;62184;52.006;5.924;2023-08-20T12:46:41;7.25;;;6.55;;
73841;SDS011;62184;52.006;5.924;2023-08-20T12:49:07;7.38;;;6.50;;
73841;SDS011;62184;52.006;5.924;2023-08-20T12:51:34;7.80;;;7.00;;
73841;SDS011;62184;52.006;5.924;2023-08-20T12:54:00;7.80;;;6.93;;
73841;SDS011;62184;52.006;5.924;2023-08-20T12:56:27;7.68;;;6.80;;
73841;SDS011;62184;52.006;5.924;2023-08-20T12:58:53;7.90;;;6.55;;
73841;SDS011;62184;52.006;5.924;2023-08-20T13:01:22;7.70;;;6.90;;
73841;SDS011;62184;52.006;5.924;2023-08-20T13:03:49;7.50;;;6.80;;
73841;SDS011;62184;52.006;5.924;2023-08-20T13:06:17;9.30;;;6.88;;
73841;SDS011;62184;52.006;5.924;2023-08-20T13:08:44;7.70;;;6.90;;
73841;SDS011;62184;52.006;5.924;2023-08-20T13:11:12;7.70;;;6.80;;
73841;SDS011;62184;52.006;5.924;2023-08-20T13:13:43;7.60;;;6.80;;
73841;SDS011;62184;52.006;5.924;2023-08-20T13:16:11;7.63;;;6.93;;
73841;SDS011;62184;52.006;5.924;2023-08-20T13:18:41;7.13;;;6.53;;
73841;SDS011;62184;52.006;5.924;2023-08-20T13:21:08;8.70;;;6.88;;
73841;SDS011;62184;52.006;5.924;2023-08-20T13:23:34;7.75;;;6.88;;
73841;SDS011;62184;52.006;5.924;2023-08-20T13:26:01;7.70;;;6.90;;
73841;SDS011;62184;52.006;5.924;2023-08-20T13:28:27;7.72;;;6.80;;
73841;SDS011;62184;52.006;5.924;2023-08-20T13:30:54;8.25;;;7.13;;
73841;SDS011;62184;52.006;5.924;2023-08-20T13:33:20;8.10;;;6.80;;
73841;SDS011;62184;52.006;5.924;2023-08-20T13:35:49;7.78;;;7.00;;
73841;SDS011;62184;52.006;5.924;2023-08-20T13:38:16;7.90;;;7.10;;
73841;SDS011;62184;52.006;5.924;2023-08-20T13:40:42;7.70;;;6.90;;
73841;SDS011;62184;52.006;5.924;2023-08-20T13:43:09;7.80;;;7.00;;
73841;SDS011;62184;52.006;5.924;2023-08-20T13:45:36;7.60;;;6.80;;
73841;SDS011;62184;52.006;5.924;2023-08-20T13:48:02;8.20;;;6.90;;
73841;SDS011;62184;52.006;5.924;2023-08-20T13:50:30;7.43;;;6.72;;
73841;SDS011;62184;52.006;5.924;2023-08-20T13:52:59;7.50;;;6.80;;
73841;SDS011;62184;52.006;5.924;2023-08-20T13:55:25;8.27;;;6.90;;
73841;SDS011;62184;52.006;5.924;2023-08-20T13:57:52;7.60;;;6.63;;
73841;SDS011;62184;52.006;5.924;2023-08-20T14:00:18;7.60;;;6.90;;
73841;SDS011;62184;52.006;5.924;2023-08-20T14:02:45;7.57;;;6.88;;
73841;SDS011;62184;52.006;5.924;2023-08-20T14:05:11;7.70;;;6.38;;
73841;SDS011;62184;52.006;5.924;2023-08-20T14:07:38;7.10;;;6.40;;
73841;SDS011;62184;52.006;5.924;2023-08-20T14:10:08;6.90;;;6.20;;
73841;SDS011;62184;52.006;5.924;2023-08-20T14:12:35;7.00;;;6.30;;
73841;SDS011;62184;52.006;5.924;2023-08-20T14:15:02;7.22;;;6.40;;
73841;SDS011;62184;52.006;5.924;2023-08-20T14:17:30;7.75;;;6.70;;
73841;SDS011;62184;52.006;5.924;2023-08-20T14:19:56;7.75;;;6.47;;
73841;SDS011;62184;52.006;5.924;2023-08-20T14:22:22;7.18;;;6.47;;
73841;SDS011;62184;52.006;5.924;2023-08-20T14:24:49;8.53;;;6.50;;
73841;SDS011;62184;52.006;5.924;2023-08-20T14:27:18;7.90;;;6.47;;
73841;SDS011;62184;52.006;5.924;2023-08-20T14:29:44;7.78;;;6.53;;
73841;SDS011;62184;52.006;5.924;2023-08-20T14:32:11;7.22;;;6.53;;
73841;SDS011;62184;52.006;5.924;2023-08-20T14:34:38;7.67;;;6.50;;
73841;SDS011;62184;52.006;5.924;2023-08-20T14:37:04;7.63;;;6.50;;
73841;SDS011;62184;52.006;5.924;2023-08-20T14:39:31;7.65;;;6.78;;
73841;SDS011;62184;52.006;5.924;2023-08-20T14:41:57;7.72;;;6.78;;